sensor_id;sensor_type;location;lat;lon;timestamp;P1;durP1;ratioP1;P2;durP2;ratioP2
22565;SDS011;11449;51.330;19.378;2023-04-01T00:02:36;84.20;;;14.50;;
22565;SDS011;11449;51.330;19.378;2023-04-01T00:07:43;55.00;;;11.30;;
22565;SDS011;11449;51.330;19.378;2023-04-01T00:12:51;59.10;;;11.60;;
22565;SDS011;11449;51.330;19.378;2023-04-01T00:17:59;69.10;;;12.40;;
22565;SDS011;11449;51.330;19.378;2023-04-01T00:23:07;62.60;;;12.00;;
22565;SDS011;11449;51.330;19.378;2023-04-01T00:28:18;60.20;;;11.40;;
22565;SDS011;11449;51.330;19.378;2023-04-01T00:33:25;62.10;;;11.60;;
22565;SDS011;11449;51.330;19.378;2023-04-01T00:38:35;56.00;;;11.70;;
22565;SDS011;11449;51.330;19.378;2023-04-01T00:43:44;57.20;;;11.60;;
22565;SDS011;11449;51.330;19.378;2023-04-01T00:48:53;50.20;;;10.90;;
22565;SDS011;11449;51.330;19.378;2023-04-01T00:54:02;51.60;;;11.60;;
22565;SDS011;11449;51.330;19.378;2023-04-01T00:59:11;56.40;;;12.40;;
22565;SDS011;11449;51.330;19.378;2023-04-01T01:25:26;64.90;;;16.10;;
22565;SDS011;11449;51.330;19.378;2023-04-01T01:30:49;45.80;;;11.70;;
22565;SDS011;11449;51.330;19.378;2023-04-01T01:35:59;50.20;;;12.60;;
22565;SDS011;11449;51.330;19.378;2023-04-01T01:41:09;57.90;;;15.30;;
22565;SDS011;11449;51.330;19.378;2023-04-01T01:46:19;72.60;;;16.10;;
22565;SDS011;11449;51.330;19.378;2023-04-01T01:51:28;61.50;;;15.20;;
22565;SDS011;11449;51.330;19.378;2023-04-01T01:56:37;71.70;;;16.30;;
22565;SDS011;11449;51.330;19.378;2023-04-01T02:01:46;79.60;;;17.00;;
22565;SDS011;11449;51.330;19.378;2023-04-01T02:06:58;64.20;;;13.20;;
22565;SDS011;11449;51.330;19.378;2023-04-01T02:12:08;49.40;;;12.70;;
22565;SDS011;11449;51.330;19.378;2023-04-01T02:17:18;49.20;;;13.70;;
22565;SDS011;11449;51.330;19.378;2023-04-01T02:22:31;58.00;;;11.00;;
22565;SDS011;11449;51.330;19.378;2023-04-01T02:27:42;62.10;;;10.80;;
22565;SDS011;11449;51.330;19.378;2023-04-01T02:32:50;66.00;;;12.10;;
22565;SDS011;11449;51.330;19.378;2023-04-01T02:37:58;67.90;;;11.30;;
22565;SDS011;11449;51.330;19.378;2023-04-01T02:43:06;48.50;;;9.00;;
22565;SDS011;11449;51.330;19.378;2023-04-01T02:48:13;57.40;;;9.30;;
22565;SDS011;11449;51.330;19.378;2023-04-01T02:53:21;43.50;;;7.90;;
22565;SDS011;11449;51.330;19.378;2023-04-01T02:58:29;44.40;;;8.30;;
22565;SDS011;11449;51.330;19.378;2023-04-01T03:03:37;51.60;;;9.00;;
22565;SDS011;11449;51.330;19.378;2023-04-01T03:08:45;51.90;;;9.00;;
22565;SDS011;11449;51.330;19.378;2023-04-01T03:13:52;47.70;;;8.90;;
22565;SDS011;11449;51.330;19.378;2023-04-01T03:19:00;53.40;;;9.00;;
22565;SDS011;11449;51.330;19.378;2023-04-01T03:24:09;51.80;;;9.80;;
22565;SDS011;11449;51.330;19.378;2023-04-01T03:29:17;63.00;;;10.00;;
22565;SDS011;11449;51.330;19.378;2023-04-01T03:34:25;50.20;;;8.90;;
22565;SDS011;11449;51.330;19.378;2023-04-01T03:39:33;51.40;;;8.40;;
22565;SDS011;11449;51.330;19.378;2023-04-01T03:44:41;49.30;;;9.00;;
22565;SDS011;11449;51.330;19.378;2023-04-01T03:49:49;55.90;;;11.10;;
22565;SDS011;11449;51.330;19.378;2023-04-01T03:54:56;57.80;;;11.80;;
22565;SDS011;11449;51.330;19.378;2023-04-01T04:00:04;55.80;;;11.20;;
22565;SDS011;11449;51.330;19.378;2023-04-01T04:05:15;66.60;;;12.00;;
22565;SDS011;11449;51.330;19.378;2023-04-01T04:10:23;54.10;;;11.30;;
22565;SDS011;11449;51.330;19.378;2023-04-01T04:15:32;61.30;;;12.40;;
22565;SDS011;11449;51.330;19.378;2023-04-01T04:20:45;71.20;;;15.50;;
22565;SDS011;11449;51.330;19.378;2023-04-01T04:26:06;64.30;;;15.40;;
22565;SDS011;11449;51.330;19.378;2023-04-01T04:31:24;65.80;;;13.70;;
22565;SDS011;11449;51.330;19.378;2023-04-01T04:36:33;80.00;;;14.30;;
22565;SDS011;11449;51.330;19.378;2023-04-01T04:41:41;90.80;;;17.00;;
22565;SDS011;11449;51.330;19.378;2023-04-01T04:46:48;64.20;;;12.60;;
22565;SDS011;11449;51.330;19.378;2023-04-01T04:51:56;94.80;;;23.50;;
22565;SDS011;11449;51.330;19.378;2023-04-01T04:57:04;112.30;;;25.00;;
22565;SDS011;11449;51.330;19.378;2023-04-01T05:02:19;105.70;;;25.10;;
22565;SDS011;11449;51.330;19.378;2023-04-01T05:07:26;90.30;;;16.60;;
22565;SDS011;11449;51.330;19.378;2023-04-01T05:12:34;77.50;;;16.30;;
22565;SDS011;11449;51.330;19.378;2023-04-01T05:17:46;56.60;;;11.50;;
22565;SDS011;11449;51.330;19.378;2023-04-01T05:22:57;64.70;;;15.90;;
22565;SDS011;11449;51.330;19.378;2023-04-01T05:28:05;85.20;;;23.60;;
22565;SDS011;11449;51.330;19.378;2023-04-01T05:33:14;88.50;;;26.50;;
22565;SDS011;11449;51.330;19.378;2023-04-01T05:38:22;102.50;;;33.10;;
22565;SDS011;11449;51.330;19.378;2023-04-01T05:43:30;70.10;;;13.20;;
22565;SDS011;11449;51.330;19.378;2023-04-01T05:48:45;67.00;;;13.50;;
22565;SDS011;11449;51.330;19.378;2023-04-01T05:53:53;58.50;;;12.30;;
22565;SDS011;11449;51.330;19.378;2023-04-01T05:59:01;62.70;;;13.50;;
22565;SDS011;11449;51.330;19.378;2023-04-01T06:04:13;72.40;;;15.70;;
22565;SDS011;11449;51.330;19.378;2023-04-01T06:09:29;75.10;;;22.50;;
22565;SDS011;11449;51.330;19.378;2023-04-01T06:15:22;70.80;;;17.10;;
22565;SDS011;11449;51.330;19.378;2023-04-01T06:25:31;71.40;;;12.80;;
22565;SDS011;11449;51.330;19.378;2023-04-01T06:30:53;50.30;;;11.80;;
22565;SDS011;11449;51.330;19.378;2023-04-01T06:36:14;62.50;;;12.50;;
22565;SDS011;11449;51.330;19.378;2023-04-01T06:57:47;73.80;;;16.90;;
22565;SDS011;11449;51.330;19.378;2023-04-01T07:03:00;67.10;;;16.20;;
22565;SDS011;11449;51.330;19.378;2023-04-01T07:08:10;63.80;;;13.50;;
22565;SDS011;11449;51.330;19.378;2023-04-01T07:13:25;93.60;;;16.90;;
22565;SDS011;11449;51.330;19.378;2023-04-01T07:18:56;75.80;;;20.60;;
22565;SDS011;11449;51.330;19.378;2023-04-01T07:29:39;103.90;;;34.70;;
22565;SDS011;11449;51.330;19.378;2023-04-01T07:35:00;93.40;;;34.50;;
22565;SDS011;11449;51.330;19.378;2023-04-01T07:45:22;92.20;;;18.70;;
22565;SDS011;11449;51.330;19.378;2023-04-01T07:50:34;56.30;;;15.10;;
22565;SDS011;11449;51.330;19.378;2023-04-01T08:01:20;34.10;;;11.00;;
22565;SDS011;11449;51.330;19.378;2023-04-01T08:11:48;75.60;;;16.10;;
22565;SDS011;11449;51.330;19.378;2023-04-01T08:17:21;84.00;;;24.50;;
22565;SDS011;11449;51.330;19.378;2023-04-01T08:22:45;54.80;;;12.10;;
22565;SDS011;11449;51.330;19.378;2023-04-01T08:33:24;71.30;;;15.30;;
22565;SDS011;11449;51.330;19.378;2023-04-01T08:38:51;68.40;;;14.10;;
22565;SDS011;11449;51.330;19.378;2023-04-01T08:49:15;59.50;;;12.90;;
22565;SDS011;11449;51.330;19.378;2023-04-01T08:54:41;63.70;;;12.80;;
22565;SDS011;11449;51.330;19.378;2023-04-01T09:21:50;50.00;;;10.00;;
22565;SDS011;11449;51.330;19.378;2023-04-01T09:27:04;69.60;;;12.60;;
22565;SDS011;11449;51.330;19.378;2023-04-01T09:59:21;48.60;;;9.50;;
22565;SDS011;11449;51.330;19.378;2023-04-01T10:05:12;53.70;;;10.80;;
22565;SDS011;11449;51.330;19.378;2023-04-01T10:32:20;44.80;;;8.20;;
22565;SDS011;11449;51.330;19.378;2023-04-01T10:59:30;41.60;;;5.80;;
22565;SDS011;11449;51.330;19.378;2023-04-01T11:05:35;63.70;;;9.60;;
22565;SDS011;11449;51.330;19.378;2023-04-01T11:11:11;40.00;;;5.40;;
22565;SDS011;11449;51.330;19.378;2023-04-01T11:21:46;52.80;;;8.40;;
22565;SDS011;11449;51.330;19.378;2023-04-01T11:43:34;48.20;;;9.20;;
22565;SDS011;11449;51.330;19.378;2023-04-01T11:59:30;49.90;;;8.40;;
22565;SDS011;11449;51.330;19.378;2023-04-01T12:04:48;55.10;;;8.50;;
22565;SDS011;11449;51.330;19.378;2023-04-01T12:20:50;55.10;;;9.70;;
22565;SDS011;11449;51.330;19.378;2023-04-01T12:41:49;55.60;;;8.90;;
22565;SDS011;11449;51.330;19.378;2023-04-01T12:57:59;61.40;;;10.60;;
22565;SDS011;11449;51.330;19.378;2023-04-01T13:03:16;64.60;;;11.60;;
22565;SDS011;11449;51.330;19.378;2023-04-01T13:19:03;65.20;;;14.20;;
22565;SDS011;11449;51.330;19.378;2023-04-01T13:29:34;63.30;;;16.40;;
22565;SDS011;11449;51.330;19.378;2023-04-01T14:00:54;53.60;;;9.00;;
22565;SDS011;11449;51.330;19.378;2023-04-01T14:11:53;42.60;;;6.60;;
22565;SDS011;11449;51.330;19.378;2023-04-01T14:17:15;48.20;;;8.10;;
22565;SDS011;11449;51.330;19.378;2023-04-01T14:22:28;53.30;;;8.50;;
22565;SDS011;11449;51.330;19.378;2023-04-01T14:27:44;69.80;;;11.90;;
22565;SDS011;11449;51.330;19.378;2023-04-01T14:33:01;69.30;;;13.60;;
22565;SDS011;11449;51.330;19.378;2023-04-01T14:43:51;64.40;;;12.10;;
22565;SDS011;11449;51.330;19.378;2023-04-01T14:49:02;51.20;;;14.50;;
22565;SDS011;11449;51.330;19.378;2023-04-01T15:25:51;54.00;;;16.30;;
22565;SDS011;11449;51.330;19.378;2023-04-01T15:31:08;64.60;;;19.20;;
22565;SDS011;11449;51.330;19.378;2023-04-01T15:36:25;59.40;;;16.80;;
22565;SDS011;11449;51.330;19.378;2023-04-01T15:46:50;63.00;;;18.70;;
22565;SDS011;11449;51.330;19.378;2023-04-01T15:52:03;94.40;;;20.30;;
22565;SDS011;11449;51.330;19.378;2023-04-01T16:02:43;86.30;;;22.10;;
22565;SDS011;11449;51.330;19.378;2023-04-01T16:07:59;66.20;;;17.60;;
22565;SDS011;11449;51.330;19.378;2023-04-01T16:13:22;74.30;;;19.80;;
22565;SDS011;11449;51.330;19.378;2023-04-01T16:23:59;73.50;;;24.70;;
22565;SDS011;11449;51.330;19.378;2023-04-01T16:29:26;74.60;;;23.00;;
22565;SDS011;11449;51.330;19.378;2023-04-01T16:34:36;93.20;;;25.20;;
22565;SDS011;11449;51.330;19.378;2023-04-01T16:40:03;109.10;;;25.80;;
22565;SDS011;11449;51.330;19.378;2023-04-01T16:50:48;123.60;;;29.00;;
22565;SDS011;11449;51.330;19.378;2023-04-01T17:01:36;123.90;;;31.40;;
22565;SDS011;11449;51.330;19.378;2023-04-01T17:06:53;116.30;;;28.50;;
22565;SDS011;11449;51.330;19.378;2023-04-01T17:12:11;120.50;;;30.00;;
22565;SDS011;11449;51.330;19.378;2023-04-01T17:17:27;92.80;;;28.60;;
22565;SDS011;11449;51.330;19.378;2023-04-01T17:22:40;124.10;;;34.90;;
22565;SDS011;11449;51.330;19.378;2023-04-01T17:27:55;86.90;;;30.20;;
22565;SDS011;11449;51.330;19.378;2023-04-01T17:33:10;109.10;;;32.90;;
22565;SDS011;11449;51.330;19.378;2023-04-01T17:38:40;121.20;;;31.30;;
22565;SDS011;11449;51.330;19.378;2023-04-01T17:44:15;123.50;;;32.40;;
22565;SDS011;11449;51.330;19.378;2023-04-01T17:49:35;95.30;;;28.90;;
22565;SDS011;11449;51.330;19.378;2023-04-01T18:05:41;128.70;;;34.10;;
22565;SDS011;11449;51.330;19.378;2023-04-01T18:26:34;106.90;;;30.70;;
22565;SDS011;11449;51.330;19.378;2023-04-01T18:31:54;122.90;;;35.00;;
22565;SDS011;11449;51.330;19.378;2023-04-01T18:37:17;117.40;;;39.60;;
22565;SDS011;11449;51.330;19.378;2023-04-01T18:43:10;105.60;;;33.90;;
22565;SDS011;11449;51.330;19.378;2023-04-01T18:53:35;145.00;;;38.20;;
22565;SDS011;11449;51.330;19.378;2023-04-01T19:09:19;118.10;;;34.20;;
22565;SDS011;11449;51.330;19.378;2023-04-01T19:35:42;132.20;;;38.70;;
22565;SDS011;11449;51.330;19.378;2023-04-01T19:46:36;119.20;;;37.30;;
22565;SDS011;11449;51.330;19.378;2023-04-01T19:57:17;132.40;;;36.80;;
22565;SDS011;11449;51.330;19.378;2023-04-01T20:07:37;133.40;;;38.00;;
22565;SDS011;11449;51.330;19.378;2023-04-01T20:12:52;127.40;;;35.70;;
22565;SDS011;11449;51.330;19.378;2023-04-01T20:18:05;121.00;;;34.10;;
22565;SDS011;11449;51.330;19.378;2023-04-01T20:23:39;112.10;;;40.10;;
22565;SDS011;11449;51.330;19.378;2023-04-01T20:34:26;99.10;;;31.00;;
22565;SDS011;11449;51.330;19.378;2023-04-01T20:39:57;108.10;;;30.90;;
22565;SDS011;11449;51.330;19.378;2023-04-01T20:50:36;105.50;;;32.60;;
22565;SDS011;11449;51.330;19.378;2023-04-01T21:27:56;128.10;;;40.10;;
22565;SDS011;11449;51.330;19.378;2023-04-01T21:33:12;116.00;;;38.60;;
22565;SDS011;11449;51.330;19.378;2023-04-01T22:05:09;110.70;;;33.00;;
22565;SDS011;11449;51.330;19.378;2023-04-01T22:10:26;89.80;;;29.30;;
22565;SDS011;11449;51.330;19.378;2023-04-01T22:21:12;83.40;;;27.20;;
22565;SDS011;11449;51.330;19.378;2023-04-01T22:31:43;71.60;;;24.80;;
22565;SDS011;11449;51.330;19.378;2023-04-01T22:36:58;55.10;;;20.90;;
22565;SDS011;11449;51.330;19.378;2023-04-01T22:58:13;68.50;;;21.20;;
22565;SDS011;11449;51.330;19.378;2023-04-01T23:19:17;104.40;;;26.80;;
22565;SDS011;11449;51.330;19.378;2023-04-01T23:24:31;129.50;;;34.30;;
22565;SDS011;11449;51.330;19.378;2023-04-01T23:29:41;104.00;;;33.50;;
22565;SDS011;11449;51.330;19.378;2023-04-01T23:34:59;81.30;;;24.70;;
22565;SDS011;11449;51.330;19.378;2023-04-01T23:40:10;86.70;;;23.70;;
22565;SDS011;11449;51.330;19.378;2023-04-01T23:45:20;113.80;;;26.50;;
22565;SDS011;11449;51.330;19.378;2023-04-01T23:50:28;97.90;;;25.10;;
22565;SDS011;11449;51.330;19.378;2023-04-01T23:55:37;122.40;;;27.50;;
